createdAt,value
2017-11-04T00:00:08.729Z,23.90
2017-11-04T00:02:38.208Z,23.90
2017-11-04T00:05:06.058Z,24.67
2017-11-04T00:07:34.801Z,24.35
2017-11-04T00:10:02.832Z,24.00
2017-11-04T00:12:31.868Z,23.75
2017-11-04T00:14:59.328Z,24.83
2017-11-04T00:17:27.068Z,25.92
2017-11-04T00:19:55.277Z,25.15
2017-11-04T00:22:24.036Z,25.77
2017-11-04T00:24:51.480Z,23.75
2017-11-04T00:27:19.026Z,25.02
2017-11-04T00:29:46.460Z,24.37
2017-11-04T00:32:13.928Z,24.70
2017-11-04T00:34:41.489Z,25.12
2017-11-04T00:37:12.597Z,25.52
2017-11-04T00:39:40.040Z,25.37
2017-11-04T00:42:07.503Z,25.90
2017-11-04T00:44:34.939Z,24.15
2017-11-04T00:47:03.192Z,23.75
2017-11-04T00:49:31.494Z,26.17
2017-11-04T00:52:01.727Z,25.10
2017-11-04T00:54:29.175Z,23.92
2017-11-04T00:56:58.361Z,24.80
2017-11-04T00:59:27.004Z,25.23
2017-11-04T01:02:05.248Z,24.00
2017-11-04T01:04:33.043Z,26.12
2017-11-04T01:07:04.172Z,25.15
2017-11-04T01:09:34.358Z,25.62
2017-11-04T01:12:03.316Z,25.40
2017-11-04T01:14:30.911Z,23.90
2017-11-04T01:16:58.621Z,24.77
2017-11-04T01:19:27.929Z,23.92
2017-11-04T01:21:57.116Z,27.83
2017-11-04T01:24:24.584Z,25.90
2017-11-04T01:26:54.988Z,25.20
2017-11-04T01:29:22.417Z,26.62
2017-11-04T01:31:50.501Z,28.25
2017-11-04T01:34:17.944Z,27.35
2017-11-04T01:36:45.427Z,28.40
2017-11-04T01:39:13.424Z,26.83
2017-11-04T01:41:40.862Z,26.67
2017-11-04T01:44:10.092Z,27.23
2017-11-04T01:46:37.549Z,26.42
2017-11-04T01:49:07.281Z,25.60
2017-11-04T01:51:34.753Z,25.62
2017-11-04T01:54:02.401Z,26.15
2017-11-04T01:56:29.838Z,25.73
2017-11-04T01:59:01.632Z,26.17
2017-11-04T02:01:30.244Z,24.80
2017-11-04T02:03:58.902Z,24.95
2017-11-04T02:06:27.946Z,26.50
2017-11-04T02:08:56.209Z,25.12
2017-11-04T02:11:23.668Z,25.20
2017-11-04T02:13:51.795Z,25.70
2017-11-04T02:16:21.044Z,24.15
2017-11-04T02:18:49.261Z,23.25
2017-11-04T02:21:18.263Z,25.30
2017-11-04T02:23:46.324Z,26.52
2017-11-04T02:26:14.692Z,23.58
2017-11-04T02:28:44.873Z,25.52
2017-11-04T02:31:15.013Z,23.65
2017-11-04T02:33:43.893Z,24.42
2017-11-04T02:36:12.203Z,26.37
2017-11-04T02:38:43.140Z,22.77
2017-11-04T02:41:13.924Z,25.27
2017-11-04T02:43:41.399Z,23.05
2017-11-04T02:46:10.200Z,24.20
2017-11-04T02:48:38.434Z,24.90
2017-11-04T02:51:07.260Z,23.87
2017-11-04T02:53:34.703Z,23.65
2017-11-04T02:56:03.172Z,23.05
2017-11-04T02:58:32.287Z,23.80
2017-11-04T03:00:59.728Z,24.10
2017-11-04T03:03:27.188Z,22.73
2017-11-04T03:05:56.375Z,22.67
2017-11-04T03:08:23.836Z,23.30
2017-11-04T03:10:51.296Z,25.27
2017-11-04T03:13:20.414Z,22.80
2017-11-04T03:15:48.675Z,25.58
2017-11-04T03:18:17.109Z,23.23
2017-11-04T03:20:46.271Z,22.75
2017-11-04T03:23:16.074Z,24.83
2017-11-04T03:25:43.532Z,25.15
2017-11-04T03:28:12.738Z,24.60
2017-11-04T03:30:41.800Z,24.80
2017-11-04T03:33:13.472Z,25.65
2017-11-04T03:35:41.786Z,24.60
2017-11-04T03:38:10.875Z,24.12
2017-11-04T03:40:38.293Z,23.48
2017-11-04T03:43:07.912Z,24.48
2017-11-04T03:45:35.347Z,23.75
2017-11-04T03:48:04.003Z,24.73
2017-11-04T03:50:34.459Z,25.23
2017-11-04T03:53:02.759Z,25.25
2017-11-04T03:55:30.215Z,25.88
2017-11-04T03:57:58.381Z,25.70
2017-11-04T04:00:26.624Z,25.10
2017-11-04T04:02:54.077Z,25.95
2017-11-04T04:05:22.292Z,25.52
2017-11-04T04:07:49.731Z,26.02
2017-11-04T04:10:17.958Z,23.73
2017-11-04T04:12:45.398Z,24.67
2017-11-04T04:15:13.629Z,26.05
2017-11-04T04:17:41.075Z,24.92
2017-11-04T04:20:09.843Z,24.12
2017-11-04T04:22:38.894Z,23.62
2017-11-04T04:25:10.097Z,23.42
2017-11-04T04:27:37.564Z,22.73
2017-11-04T04:30:05.533Z,23.52
2017-11-04T04:32:32.984Z,24.35
2017-11-04T04:35:07.433Z,22.95
2017-11-04T04:37:34.883Z,24.02
2017-11-04T04:40:04.893Z,22.62
2017-11-04T04:45:07.385Z,22.83
2017-11-04T04:47:36.341Z,23.27
2017-11-04T04:50:04.558Z,22.62
2017-11-04T04:52:35.760Z,20.30
2017-11-04T04:55:03.214Z,22.85
2017-11-04T04:57:31.226Z,22.73
2017-11-04T04:59:58.683Z,22.42
2017-11-04T05:02:27.993Z,22.25
2017-11-04T05:04:56.056Z,21.40
2017-11-04T05:07:23.497Z,21.95
2017-11-04T05:09:50.977Z,24.25
2017-11-04T05:12:18.425Z,22.10
2017-11-04T05:14:46.787Z,23.17
2017-11-04T05:17:14.245Z,23.50
2017-11-04T05:19:43.296Z,22.50
2017-11-04T05:22:10.751Z,23.85
2017-11-04T05:24:39.272Z,24.05
2017-11-04T05:27:06.728Z,24.83
2017-11-04T05:29:34.953Z,23.10
2017-11-04T05:32:02.400Z,23.25
2017-11-04T05:34:30.677Z,24.27
2017-11-04T05:36:59.116Z,21.92
2017-11-04T05:39:28.084Z,23.45
2017-11-04T05:41:55.523Z,22.52
2017-11-04T05:44:24.699Z,23.25
2017-11-04T05:46:52.986Z,23.08
2017-11-04T05:49:21.023Z,23.40
2017-11-04T05:51:49.240Z,23.83
2017-11-04T05:54:19.216Z,23.77
2017-11-04T05:56:46.774Z,24.73
2017-11-04T05:59:17.096Z,22.15
2017-11-04T06:01:44.998Z,23.95
2017-11-04T06:04:12.499Z,23.58
2017-11-04T06:06:40.048Z,24.70
2017-11-04T06:09:07.489Z,26.95
2017-11-04T06:11:39.453Z,24.90
2017-11-04T06:14:06.892Z,24.25
2017-11-04T06:16:35.209Z,22.73
2017-11-04T06:19:02.648Z,25.42
2017-11-04T06:21:32.109Z,25.30
2017-11-04T06:23:59.761Z,26.33
2017-11-04T06:26:27.273Z,23.85
2017-11-04T06:28:55.504Z,24.15
2017-11-04T06:31:22.949Z,25.92
2017-11-04T06:33:51.185Z,24.10
2017-11-04T06:36:20.149Z,26.23
2017-11-04T06:38:48.392Z,24.12
2017-11-04T06:41:17.582Z,24.60
2017-11-04T06:43:47.118Z,23.70
2017-11-04T06:46:15.424Z,25.27
2017-11-04T06:48:42.884Z,24.48
2017-11-04T06:51:10.321Z,27.08
2017-11-04T06:53:39.345Z,23.48
2017-11-04T06:56:06.808Z,24.27
2017-11-04T06:58:37.469Z,23.45
2017-11-04T07:01:07.798Z,23.35
2017-11-04T07:03:36.062Z,24.02
2017-11-04T07:06:04.432Z,24.42
2017-11-04T07:08:34.474Z,23.05
2017-11-04T07:11:01.945Z,21.48
2017-11-04T07:13:30.975Z,22.98
2017-11-04T07:15:59.844Z,24.40
2017-11-04T07:18:30.128Z,22.48
2017-11-04T07:20:58.102Z,22.73
2017-11-04T07:23:26.299Z,20.83
2017-11-04T07:25:53.740Z,21.90
2017-11-04T07:28:21.967Z,21.92
2017-11-04T07:30:49.411Z,22.73
2017-11-04T07:33:17.545Z,23.05
2017-11-04T07:35:45.005Z,23.98
2017-11-04T07:38:16.056Z,23.20
2017-11-04T07:40:43.545Z,22.45
2017-11-04T07:43:11.591Z,22.15
2017-11-04T07:45:39.061Z,24.20
2017-11-04T07:48:07.365Z,22.75
2017-11-04T07:50:35.999Z,20.75
2017-11-04T07:53:05.378Z,22.08
2017-11-04T07:55:35.726Z,20.90
2017-11-04T07:58:06.719Z,21.50
2017-11-04T08:00:34.713Z,21.87
2017-11-04T08:03:03.169Z,22.52
2017-11-04T08:05:30.636Z,22.50
2017-11-04T08:07:58.934Z,22.50
2017-11-04T08:10:26.407Z,24.67
2017-11-04T08:12:55.307Z,21.23
2017-11-04T08:15:25.492Z,24.40
2017-11-04T08:17:53.750Z,23.17
2017-11-04T08:20:21.185Z,22.10
2017-11-04T08:22:49.477Z,23.23
2017-11-04T08:25:18.246Z,22.60
2017-11-04T08:27:46.447Z,26.23
2017-11-04T08:30:16.030Z,23.20
2017-11-04T08:32:43.490Z,26.62
2017-11-04T08:35:13.023Z,26.40
2017-11-04T08:37:40.489Z,28.25
2017-11-04T08:40:07.945Z,24.87
2017-11-04T08:42:35.421Z,23.73
2017-11-04T08:45:04.793Z,28.55
2017-11-04T08:47:32.397Z,26.70
2017-11-04T08:50:01.590Z,27.75
2017-11-04T08:52:29.818Z,26.48
2017-11-04T08:54:59.661Z,27.52
2017-11-04T08:57:27.120Z,26.17
2017-11-04T08:59:56.208Z,25.60
2017-11-04T09:02:24.469Z,31.58
2017-11-04T09:04:52.759Z,28.30
2017-11-04T09:07:20.276Z,27.20
2017-11-04T09:09:47.727Z,27.05
2017-11-04T09:12:15.221Z,27.30
2017-11-04T09:14:44.780Z,29.05
2017-11-04T09:17:19.048Z,26.62
2017-11-04T09:19:46.500Z,24.70
2017-11-04T09:22:13.976Z,25.80
2017-11-04T09:24:41.423Z,24.50
2017-11-04T09:27:10.619Z,25.30
2017-11-04T09:29:40.518Z,26.02
2017-11-04T09:32:11.031Z,26.15
2017-11-04T09:34:41.505Z,26.90
2017-11-04T09:37:09.013Z,28.52
2017-11-04T09:39:36.484Z,26.23
2017-11-04T09:42:03.982Z,33.72
2017-11-04T09:44:32.225Z,30.00
2017-11-04T09:47:00.394Z,27.15
2017-11-04T09:49:28.322Z,27.48
2017-11-04T09:51:55.809Z,27.10
2017-11-04T09:54:23.285Z,30.48
2017-11-04T09:56:52.954Z,29.37
2017-11-04T09:59:20.420Z,32.13
2017-11-04T10:01:48.543Z,28.48
2017-11-04T10:04:15.991Z,30.90
2017-11-04T10:06:44.984Z,31.75
2017-11-04T10:09:17.724Z,29.25
2017-11-04T10:11:45.887Z,28.05
2017-11-04T10:14:13.669Z,31.12
2017-11-04T10:16:41.688Z,28.00
2017-11-04T10:19:12.001Z,28.65
2017-11-04T10:21:40.740Z,27.58
2017-11-04T10:24:08.188Z,26.55
2017-11-04T10:26:36.541Z,26.23
2017-11-04T10:29:05.675Z,25.23
2017-11-04T10:31:34.509Z,28.40
2017-11-04T10:34:05.504Z,26.30
2017-11-04T10:36:34.323Z,29.83
2017-11-04T10:39:05.157Z,26.15
2017-11-04T10:41:32.632Z,28.95
2017-11-04T10:44:01.069Z,28.13
2017-11-04T10:46:28.603Z,27.02
2017-11-04T10:48:56.658Z,25.50
2017-11-04T10:51:24.116Z,25.77
2017-11-04T10:53:51.592Z,26.90
2017-11-04T10:56:19.060Z,26.40
2017-11-04T10:58:49.057Z,25.93
2017-11-04T11:01:16.499Z,24.93
2017-11-04T11:03:45.582Z,26.33
2017-11-04T11:06:13.790Z,27.40
2017-11-04T11:08:42.401Z,27.57
2017-11-04T11:11:09.866Z,25.53
2017-11-04T11:13:37.381Z,27.87
2017-11-04T11:16:04.825Z,26.17
2017-11-04T11:18:32.308Z,30.30
2017-11-04T11:21:02.478Z,28.33
2017-11-04T11:23:29.936Z,27.33
2017-11-04T11:25:58.740Z,43.30
2017-11-04T11:28:28.302Z,38.83
2017-11-04T11:30:57.480Z,130.97
2017-11-04T11:33:26.125Z,94.80
2017-11-04T11:35:55.517Z,34.47
2017-11-04T11:38:23.731Z,109.67
2017-11-04T11:40:53.087Z,35.00
2017-11-04T11:43:20.546Z,53.43
2017-11-04T11:45:54.329Z,69.23
2017-11-04T11:48:21.768Z,37.33
2017-11-04T11:50:51.095Z,75.30
2017-11-04T11:53:19.494Z,38.07
2017-11-04T11:55:50.556Z,34.47
2017-11-04T11:58:18.017Z,33.30
2017-11-04T12:00:46.336Z,33.93
2017-11-04T12:03:13.794Z,35.60
2017-11-04T12:05:42.374Z,45.67
2017-11-04T12:08:09.841Z,33.77
2017-11-04T12:10:42.598Z,44.70
2017-11-04T12:13:10.906Z,32.90
2017-11-04T12:15:40.298Z,33.70
2017-11-04T12:18:08.543Z,34.10
2017-11-04T12:20:38.678Z,34.45
2017-11-04T12:23:06.165Z,33.83
2017-11-04T12:25:33.630Z,34.33
2017-11-04T12:28:01.111Z,35.77
2017-11-04T12:30:29.822Z,35.60
2017-11-04T12:32:59.128Z,35.13
2017-11-04T12:35:26.609Z,34.57
2017-11-04T12:37:55.004Z,36.03
2017-11-04T12:40:22.516Z,36.47
2017-11-04T12:42:51.467Z,32.67
2017-11-04T12:45:18.922Z,34.27
2017-11-04T12:47:48.008Z,34.70
2017-11-04T12:50:16.404Z,33.07
2017-11-04T12:52:45.970Z,35.40
2017-11-04T12:55:15.538Z,38.87
2017-11-04T12:57:42.996Z,37.73
2017-11-04T13:00:11.346Z,36.63
2017-11-04T13:02:39.583Z,35.50
2017-11-04T13:05:07.095Z,37.07
2017-11-04T13:07:35.417Z,34.47
2017-11-04T13:10:02.881Z,35.87
2017-11-04T13:12:36.021Z,33.97
2017-11-04T13:15:03.473Z,35.40
2017-11-04T13:17:30.934Z,34.73
2017-11-04T13:19:59.162Z,37.17
2017-11-04T13:22:26.633Z,38.23
2017-11-04T13:24:54.115Z,35.97
2017-11-04T13:27:22.544Z,36.60
2017-11-04T13:29:50.043Z,35.90
2017-11-04T13:32:19.778Z,36.20
2017-11-04T13:34:48.000Z,35.53
2017-11-04T13:37:17.012Z,37.00
2017-11-04T13:39:45.985Z,37.00
2017-11-04T13:42:14.993Z,37.30
2017-11-04T13:44:43.480Z,39.53
2017-11-04T13:47:12.131Z,39.87
2017-11-04T13:49:39.605Z,39.27
2017-11-04T13:52:09.262Z,39.80
2017-11-04T13:54:37.469Z,38.95
2017-11-04T13:57:08.774Z,36.33
2017-11-04T13:59:37.917Z,38.33
2017-11-04T14:02:08.873Z,39.70
2017-11-04T14:04:38.277Z,38.63
2017-11-04T14:07:10.455Z,38.47
2017-11-04T14:09:37.933Z,39.90
2017-11-04T14:12:08.136Z,39.43
2017-11-04T14:14:35.856Z,38.97
2017-11-04T14:17:11.383Z,38.65
2017-11-04T14:19:40.476Z,39.08
2017-11-04T14:22:10.146Z,38.60
2017-11-04T14:24:37.645Z,39.30
2017-11-04T14:27:05.108Z,40.15
2017-11-04T14:29:34.100Z,38.80
2017-11-04T14:32:02.156Z,38.37
2017-11-04T14:34:30.366Z,38.08
2017-11-04T14:36:57.843Z,39.17
2017-11-04T14:39:25.297Z,39.17
2017-11-04T14:41:53.552Z,39.93
2017-11-04T14:44:23.955Z,40.08
2017-11-04T14:46:51.536Z,40.30
2017-11-04T14:49:19.036Z,40.20
2017-11-04T14:51:46.559Z,37.50
2017-11-04T14:54:15.388Z,38.70
2017-11-04T14:56:43.681Z,46.83
2017-11-04T14:59:11.160Z,42.20
2017-11-04T15:01:41.323Z,47.67
2017-11-04T15:04:09.589Z,42.63
2017-11-04T15:06:37.137Z,46.13
2017-11-04T15:09:05.405Z,42.53
2017-11-04T15:11:34.107Z,39.27
2017-11-04T15:14:01.585Z,42.67
2017-11-04T15:16:29.942Z,40.27
2017-11-04T15:18:57.760Z,40.70
2017-11-04T15:21:26.199Z,38.70
2017-11-04T15:23:57.452Z,39.37
2017-11-04T15:26:25.706Z,39.47
2017-11-04T15:28:54.565Z,42.90
2017-11-04T15:31:22.063Z,39.70
2017-11-04T15:33:49.576Z,39.47
2017-11-04T15:36:17.068Z,40.17
2017-11-04T15:38:44.559Z,39.87
2017-11-04T15:41:13.579Z,39.30
2017-11-04T15:43:41.176Z,38.13
2017-11-04T15:46:08.654Z,38.77
2017-11-04T15:48:36.645Z,42.23
2017-11-04T15:51:04.928Z,39.67
2017-11-04T15:53:32.402Z,36.67
2017-11-04T15:56:00.504Z,38.53
2017-11-04T15:58:28.066Z,37.20
2017-11-04T16:00:56.270Z,39.13
2017-11-04T16:03:23.828Z,37.63
2017-11-04T16:05:52.256Z,39.13
2017-11-04T16:08:19.810Z,39.65
2017-11-04T16:10:49.602Z,41.30
2017-11-04T16:13:17.938Z,37.67
2017-11-04T16:15:48.120Z,39.37
2017-11-04T16:18:17.397Z,38.33
2017-11-04T16:20:48.413Z,39.63
2017-11-04T16:23:20.685Z,39.10
2017-11-04T16:25:48.499Z,40.70
2017-11-04T16:28:16.781Z,38.42
2017-11-04T16:30:44.274Z,43.28
2017-11-04T16:33:11.748Z,41.05
2017-11-04T16:35:39.204Z,40.63
2017-11-04T16:38:08.909Z,37.20
2017-11-04T16:40:37.232Z,40.05
2017-11-04T16:43:05.896Z,38.90
2017-11-04T16:45:33.367Z,38.50
2017-11-04T16:48:01.414Z,38.58
2017-11-04T16:50:28.984Z,41.40
2017-11-04T16:52:56.476Z,39.58
2017-11-04T16:55:23.958Z,40.70
2017-11-04T16:57:55.815Z,39.72
2017-11-04T17:00:23.299Z,39.63
2017-11-04T17:02:50.828Z,40.78
2017-11-04T17:05:19.109Z,40.12
2017-11-04T17:07:46.568Z,38.38
2017-11-04T17:10:14.047Z,36.70
2017-11-04T17:12:42.457Z,41.92
2017-11-04T17:15:10.765Z,40.85
2017-11-04T17:17:38.989Z,40.78
2017-11-04T17:20:07.849Z,39.55
2017-11-04T17:22:36.253Z,37.42
2017-11-04T17:25:05.360Z,39.33
2017-11-04T17:27:32.872Z,40.78
2017-11-04T17:30:00.357Z,35.75
2017-11-04T17:32:27.881Z,39.58
2017-11-04T17:34:55.353Z,40.40
2017-11-04T17:37:23.795Z,38.20
2017-11-04T17:39:52.016Z,39.38
2017-11-04T17:42:25.001Z,39.95
2017-11-04T17:44:55.992Z,40.92
2017-11-04T17:47:23.459Z,40.58
2017-11-04T17:49:51.859Z,39.58
2017-11-04T17:52:23.565Z,40.65
2017-11-04T17:54:51.903Z,41.13
2017-11-04T17:57:19.429Z,39.55
2017-11-04T17:59:46.912Z,37.72
2017-11-04T18:02:18.549Z,38.22
2017-11-04T18:04:46.018Z,39.20
2017-11-04T18:07:13.513Z,38.80
2017-11-04T18:09:41.043Z,38.65
2017-11-04T18:12:08.550Z,38.72
2017-11-04T18:14:37.654Z,36.40
2017-11-04T18:17:05.600Z,36.33
2017-11-04T18:19:34.528Z,38.25
2017-11-04T18:22:02.021Z,38.35
2017-11-04T18:24:30.581Z,39.03
2017-11-04T18:26:58.896Z,37.42
2017-11-04T18:29:26.380Z,39.45
2017-11-04T18:31:54.620Z,38.95
2017-11-04T18:34:22.128Z,38.95
2017-11-04T18:36:49.580Z,39.35
2017-11-04T18:39:17.964Z,39.53
2017-11-04T18:41:45.496Z,39.45
2017-11-04T18:44:18.019Z,38.90
2017-11-04T18:46:45.453Z,39.80
2017-11-04T18:49:12.932Z,38.65
2017-11-04T18:51:40.524Z,38.35
2017-11-04T18:54:09.033Z,38.72
2017-11-04T18:56:39.367Z,36.58
2017-11-04T18:59:06.858Z,38.55
2017-11-04T19:01:35.091Z,38.17
2017-11-04T19:04:02.711Z,41.40
2017-11-04T19:06:32.127Z,39.78
2017-11-04T19:08:59.586Z,39.55
2017-11-04T19:11:28.585Z,37.35
2017-11-04T19:13:56.068Z,40.78
2017-11-04T19:16:23.542Z,41.90
2017-11-04T19:18:51.145Z,38.75
2017-11-04T19:21:19.785Z,40.90
2017-11-04T19:23:47.260Z,40.95
2017-11-04T19:26:15.101Z,39.95
2017-11-04T19:31:16.560Z,39.80
2017-11-04T19:33:44.796Z,39.05
2017-11-04T19:36:12.860Z,37.47
2017-11-04T19:38:40.317Z,38.92
2017-11-04T19:41:12.425Z,40.47
2017-11-04T19:43:39.864Z,40.35
2017-11-04T19:46:08.861Z,38.55
2017-11-04T19:48:36.331Z,42.88
2017-11-04T19:51:05.792Z,43.05
2017-11-04T19:53:33.756Z,41.00
2017-11-04T19:56:01.216Z,39.00
2017-11-04T19:58:28.710Z,41.70
2017-11-04T20:00:58.177Z,38.80
2017-11-04T20:03:28.501Z,40.65
2017-11-04T20:05:55.988Z,39.38
2017-11-04T20:08:23.502Z,40.60
2017-11-04T20:10:50.964Z,38.15
2017-11-04T20:13:19.765Z,39.95
2017-11-04T20:15:47.263Z,39.83
2017-11-04T20:18:15.975Z,42.15
2017-11-04T20:20:43.436Z,43.60
2017-11-04T20:23:11.704Z,40.80
2017-11-04T20:25:39.167Z,40.17
2017-11-04T20:28:08.864Z,39.60
2017-11-04T20:30:41.333Z,48.58
2017-11-04T20:33:09.509Z,40.83
2017-11-04T20:35:36.961Z,40.88
2017-11-04T20:38:05.458Z,45.88
2017-11-04T20:40:33.753Z,42.08
2017-11-04T20:43:01.224Z,46.70
2017-11-04T20:45:30.024Z,42.90
2017-11-04T20:47:57.514Z,46.25
2017-11-04T20:50:24.989Z,43.15
2017-11-04T20:52:53.425Z,43.58
2017-11-04T20:55:21.675Z,39.53
2017-11-04T20:57:49.192Z,39.30
2017-11-04T21:00:17.440Z,37.78
2017-11-04T21:02:44.916Z,36.05
2017-11-04T21:05:12.404Z,34.58
2017-11-04T21:07:39.865Z,35.60
2017-11-04T21:10:07.338Z,36.15
2017-11-04T21:12:34.813Z,36.55
2017-11-04T21:15:02.344Z,35.50
2017-11-04T21:17:30.568Z,43.83
2017-11-04T21:19:58.037Z,44.42
2017-11-04T21:22:25.557Z,35.45
2017-11-04T21:24:53.053Z,33.60
2017-11-04T21:27:20.543Z,33.92
2017-11-04T21:29:48.058Z,34.20
2017-11-04T21:32:15.545Z,34.35
2017-11-04T21:34:43.016Z,33.42
2017-11-04T21:37:10.502Z,33.70
2017-11-04T21:39:37.978Z,35.95
2017-11-04T21:42:05.469Z,36.60
2017-11-04T21:44:32.993Z,35.38
2017-11-04T21:47:00.456Z,34.80
2017-11-04T21:49:28.039Z,36.10
2017-11-04T21:51:55.537Z,34.85
2017-11-04T21:54:23.061Z,34.65
2017-11-04T21:56:51.328Z,35.63
2017-11-04T21:59:18.824Z,34.33
2017-11-04T22:01:46.311Z,37.30
2017-11-04T22:04:13.892Z,50.63
2017-11-04T22:06:41.529Z,54.40
2017-11-04T22:09:09.051Z,37.78
2017-11-04T22:11:36.825Z,32.90
2017-11-04T22:14:05.171Z,31.95
2017-11-04T22:16:32.689Z,32.45
2017-11-04T22:19:00.243Z,33.95
2017-11-04T22:21:27.709Z,33.35
2017-11-04T22:23:55.199Z,33.72
2017-11-04T22:26:23.424Z,32.33
2017-11-04T22:28:51.665Z,31.42
2017-11-04T22:31:19.132Z,32.00
2017-11-04T22:33:46.631Z,30.30
2017-11-04T22:36:14.114Z,29.60
2017-11-04T22:38:41.644Z,30.37
2017-11-04T22:41:09.593Z,32.80
2017-11-04T22:43:37.153Z,29.25
2017-11-04T22:46:04.623Z,31.45
2017-11-04T22:48:32.129Z,31.27
2017-11-04T22:51:01.781Z,32.67
2017-11-04T22:53:29.264Z,35.78
2017-11-04T22:55:57.315Z,36.72
2017-11-04T22:58:26.325Z,38.13
2017-11-04T23:00:55.154Z,37.00
2017-11-04T23:03:23.480Z,35.38
2017-11-04T23:05:51.896Z,37.15
2017-11-04T23:08:19.361Z,33.70
2017-11-04T23:10:46.847Z,37.30
2017-11-04T23:13:14.721Z,34.25
2017-11-04T23:15:42.169Z,36.08
2017-11-04T23:18:09.659Z,37.83
2017-11-04T23:20:37.135Z,35.67
2017-11-04T23:23:05.228Z,39.40
2017-11-04T23:25:32.709Z,37.67
2017-11-04T23:28:01.136Z,36.47
2017-11-04T23:30:29.377Z,35.75
2017-11-04T23:32:56.840Z,34.50
2017-11-04T23:35:24.402Z,35.85
2017-11-04T23:37:52.739Z,35.42
2017-11-04T23:40:20.200Z,36.30
2017-11-04T23:42:49.699Z,34.20
2017-11-04T23:45:20.224Z,35.00
2017-11-04T23:47:47.759Z,35.80
2017-11-04T23:50:15.468Z,30.90
2017-11-04T23:52:43.300Z,33.08
2017-11-04T23:55:13.261Z,33.67
2017-11-04T23:57:42.492Z,32.08
